Time;durP1;ratioP1;P1;durP2;ratioP2;P2;SDS_P1;SDS_P2;PMS_P1;PMS_P2;Temp;Humidity;BMP_temperature;BMP_pressure;BME280_temperature;BME280_humidity;BME280_pressure;Samples;Min_cycle;Max_cycle;Signal;HPM_P1;HPM_P2
2022/12/14 00:03:21;;;;;;;;;;;15.30;53.10;;;;;;10130166;28;96833;-62
2022/12/14 00:08:23;;;;;;;;;;;15.30;53.10;;;;;;10133416;28;94822;-62
2022/12/14 00:13:25;;;;;;;;;;;15.30;53.00;;;;;;10131819;28;93661;-62
2022/12/14 00:18:27;;;;;;;;;;;15.30;52.90;;;;;;10132248;28;94533;-62
2022/12/14 00:23:29;;;;;;;;;;;15.30;52.90;;;;;;10130759;28;94816;-61
2022/12/14 00:28:39;;;;;;;;;;;15.20;52.80;;;;;;10132018;28;94196;-61
2022/12/14 00:33:41;;;;;;;;;;;15.20;52.90;;;;;;10133070;28;93522;-62
2022/12/14 00:38:43;;;;;;;;;;;15.30;52.80;;;;;;10133207;28;92393;-61
2022/12/14 00:43:44;;;;;;;;;;;15.20;52.80;;;;;;10131149;28;93526;-61
2022/12/14 00:48:50;;;;;;;;;;;15.20;52.70;;;;;;10130641;28;93704;-61
2022/12/14 00:53:52;;;;;;;;;;;15.20;52.70;;;;;;10129242;28;97427;-61
2022/12/14 00:58:54;;;;;;;;;;;15.20;52.80;;;;;;10131440;28;93536;-61
2022/12/14 01:04:15;;;;;;;;;;;15.20;52.70;;;;;;10130581;28;93767;-62
2022/12/14 01:09:18;;;;;;;;;;;15.20;52.70;;;;;;10131036;28;93455;-61
2022/12/14 01:14:20;;;;;;;;;;;15.20;52.50;;;;;;10130306;28;93984;-61
2022/12/14 01:19:22;;;;;;;;;;;15.20;52.50;;;;;;10130990;28;94517;-61
2022/12/14 01:24:23;;;;;;;;;;;15.20;52.50;;;;;;10130050;28;93191;-61
2022/12/14 01:29:25;;;;;;;;;;;15.20;52.50;;;;;;10131503;28;92783;-61
2022/12/14 01:34:27;;;;;;;;;;;15.20;52.40;;;;;;10130792;28;94575;-61
2022/12/14 01:39:29;;;;;;;;;;;15.20;52.30;;;;;;10129344;28;92706;-61
2022/12/14 01:44:31;;;;;;;;;;;15.20;52.20;;;;;;10128053;28;96877;-62
2022/12/14 01:49:41;;;;;;;;;;;15.20;52.30;;;;;;10144041;28;93413;-62
2022/12/14 01:54:50;;;;;;;;;;;15.30;52.20;;;;;;10129186;28;94875;-62
2022/12/14 01:59:54;;;;;;;;;;;15.40;52.10;;;;;;10129417;28;94467;-62
2022/12/14 02:04:58;;;;;;;;;;;15.40;52.00;;;;;;10619358;23;95084;-61
2022/12/14 02:10:01;;;;;;;;;;;15.40;51.70;;;;;;10224088;28;94565;-61
2022/12/14 02:15:03;;;;;;;;;;;15.40;51.70;;;;;;10211188;28;94462;-61
2022/12/14 02:20:05;;;;;;;;;;;15.40;51.70;;;;;;10210384;28;94056;-61
2022/12/14 02:25:16;;;;;;;;;;;15.40;51.70;;;;;;10208927;28;94885;-62
2022/12/14 02:30:19;;;;;;;;;;;15.40;51.60;;;;;;10209730;28;94120;-62
2022/12/14 02:35:33;;;;;;;;;;;15.40;51.50;;;;;;10206489;28;96617;-61
2022/12/14 02:40:52;;;;;;;;;;;15.30;51.40;;;;;;10215266;28;92495;-63
2022/12/14 02:46:09;;;;;;;;;;;15.40;51.60;;;;;;10215409;28;93397;-63
2022/12/14 02:51:26;;;;;;;;;;;15.40;51.50;;;;;;10215185;28;92499;-62
2022/12/14 02:56:34;;;;;;;;;;;15.40;51.40;;;;;;10215319;28;94459;-62
2022/12/14 03:01:36;;;;;;;;;;;15.30;51.40;;;;;;10214765;28;93421;-62
2022/12/14 03:06:50;;;;;;;;;;;15.30;51.40;;;;;;10214305;28;93489;-62
2022/12/14 03:11:55;;;;;;;;;;;15.30;51.40;;;;;;10215403;28;92719;-62
2022/12/14 03:17:01;;;;;;;;;;;15.40;51.40;;;;;;10214978;28;93283;-62
2022/12/14 03:22:07;;;;;;;;;;;15.50;51.30;;;;;;10214492;28;93927;-62
2022/12/14 03:27:19;;;;;;;;;;;15.40;51.00;;;;;;10211231;28;95849;-63
2022/12/14 03:32:22;;;;;;;;;;;15.50;51.00;;;;;;10214716;28;94779;-63
2022/12/14 03:37:36;;;;;;;;;;;15.40;50.90;;;;;;10213974;28;93331;-63
2022/12/14 03:42:40;;;;;;;;;;;15.40;51.10;;;;;;10212133;28;93671;-63
2022/12/14 03:48:04;;;;;;;;;;;15.40;50.90;;;;;;10213184;28;93482;-62
2022/12/14 03:53:12;;;;;;;;;;;15.40;50.90;;;;;;10212938;28;93460;-63
2022/12/14 03:58:32;;;;;;;;;;;15.30;50.90;;;;;;10213586;28;94514;-63
2022/12/14 04:03:41;;;;;;;;;;;15.30;51.00;;;;;;10211724;28;92780;-63
2022/12/14 04:08:48;;;;;;;;;;;15.40;51.00;;;;;;10213276;28;93365;-63
2022/12/14 04:19:39;;;;;;;;;;;15.50;50.70;;;;;;10210285;28;94931;-63
2022/12/14 04:30:10;;;;;;;;;;;15.40;50.50;;;;;;10211981;28;93480;-63
2022/12/14 04:35:16;;;;;;;;;;;15.50;50.60;;;;;;10228074;28;93413;-62
2022/12/14 04:40:39;;;;;;;;;;;15.40;50.50;;;;;;10227183;28;94066;-63
2022/12/14 06:02:56;;;;;;;;;;;15.80;49.70;;;;;;10160855;28;93621;-61
2022/12/14 06:07:58;;;;;;;;;;;16.10;49.40;;;;;;10224516;28;93635;-62
2022/12/14 06:13:00;;;;;;;;;;;16.20;49.10;;;;;;10223959;28;93221;-62
2022/12/14 06:18:01;;;;;;;;;;;16.30;48.90;;;;;;10206916;28;95511;-62
2022/12/14 06:23:03;;;;;;;;;;;16.30;48.80;;;;;;10209137;28;94517;-63
2022/12/14 06:28:05;;;;;;;;;;;16.20;48.70;;;;;;10208554;28;94204;-62
2022/12/14 06:33:07;;;;;;;;;;;16.20;48.80;;;;;;10209119;28;94461;-62
2022/12/14 06:38:08;;;;;;;;;;;16.10;48.90;;;;;;10208507;28;93448;-62
2022/12/14 06:43:10;;;;;;;;;;;16.10;49.00;;;;;;10208337;28;93989;-61
2022/12/14 06:48:12;;;;;;;;;;;16.10;49.80;;;;;;10208146;28;94447;-62
2022/12/14 06:53:14;;;;;;;;;;;16.10;49.60;;;;;;10209418;28;92721;-62
2022/12/14 06:58:15;;;;;;;;;;;16.20;49.80;;;;;;10207801;28;92612;-63
2022/12/14 07:03:17;;;;;;;;;;;16.10;50.30;;;;;;10206985;28;94589;-63
2022/12/14 07:08:19;;;;;;;;;;;16.00;50.30;;;;;;10205879;28;96102;-63
2022/12/14 07:13:21;;;;;;;;;;;16.00;50.00;;;;;;10222369;28;94330;-65
2022/12/14 07:18:23;;;;;;;;;;;16.00;50.00;;;;;;10208012;28;94995;-63
2022/12/14 07:23:26;;;;;;;;;;;16.00;49.70;;;;;;10209772;28;93500;-63
2022/12/14 07:28:29;;;;;;;;;;;16.00;49.50;;;;;;10215225;28;94495;-63
2022/12/14 07:33:31;;;;;;;;;;;16.00;49.40;;;;;;10213685;28;93300;-63
2022/12/14 07:38:33;;;;;;;;;;;15.90;49.40;;;;;;10213729;28;94501;-63
2022/12/14 07:43:35;;;;;;;;;;;15.90;49.40;;;;;;10214587;28;92772;-63
2022/12/14 07:48:37;;;;;;;;;;;16.00;49.30;;;;;;10213145;28;93200;-64
2022/12/14 07:53:39;;;;;;;;;;;16.10;49.20;;;;;;10212788;28;93419;-63
2022/12/14 07:58:41;;;;;;;;;;;16.20;49.00;;;;;;10209914;28;95885;-63
2022/12/14 08:03:44;;;;;;;;;;;16.20;48.90;;;;;;10212271;28;94809;-64
2022/12/14 08:08:46;;;;;;;;;;;16.20;48.50;;;;;;10213561;28;94454;-63
2022/12/14 08:13:56;;;;;;;;;;;16.10;48.40;;;;;;10213123;28;94562;-63
2022/12/14 08:18:59;;;;;;;;;;;16.10;48.60;;;;;;10213499;28;94344;-63
2022/12/14 08:24:00;;;;;;;;;;;16.10;48.60;;;;;;10213015;28;94269;-63
2022/12/14 08:29:03;;;;;;;;;;;16.10;48.50;;;;;;10213168;28;94496;-63
2022/12/14 08:34:05;;;;;;;;;;;16.20;48.40;;;;;;10212064;28;92780;-63
2022/12/14 08:39:08;;;;;;;;;;;16.10;48.30;;;;;;10212215;28;93590;-63
2022/12/14 08:44:10;;;;;;;;;;;16.00;48.20;;;;;;10212035;28;94583;-63
2022/12/14 08:49:11;;;;;;;;;;;16.00;48.40;;;;;;10192154;28;97181;-63
2022/12/14 08:54:13;;;;;;;;;;;16.00;48.50;;;;;;10212389;28;93325;-63
2022/12/14 08:59:15;;;;;;;;;;;16.10;48.50;;;;;;10211524;28;93195;-63
2022/12/14 09:04:37;;;;;;;;;;;16.20;48.40;;;;;;10210194;28;93286;-64
2022/12/14 09:09:39;;;;;;;;;;;16.30;48.20;;;;;;10210921;28;93317;-64
2022/12/14 09:14:40;;;;;;;;;;;16.30;48.00;;;;;;10211597;28;94139;-64
2022/12/14 09:19:42;;;;;;;;;;;16.30;48.00;;;;;;10211038;28;94472;-64
2022/12/14 09:24:44;;;;;;;;;;;16.20;48.00;;;;;;10210599;28;93820;-64
2022/12/14 09:29:46;;;;;;;;;;;16.10;48.10;;;;;;10211314;28;93914;-63
2022/12/14 09:34:48;;;;;;;;;;;16.10;48.20;;;;;;10210130;28;92656;-63
2022/12/14 09:39:50;;;;;;;;;;;16.00;48.30;;;;;;10207225;28;96037;-63
2022/12/14 09:44:52;;;;;;;;;;;16.00;48.40;;;;;;10210084;28;93573;-63
2022/12/14 09:50:02;;;;;;;;;;;16.00;48.70;;;;;;10210352;28;93312;-63
2022/12/14 09:55:10;;;;;;;;;;;16.00;48.70;;;;;;10209525;28;93457;-63
2022/12/14 10:00:13;;;;;;;;;;;16.20;48.60;;;;;;10210116;28;94466;-63
2022/12/14 10:05:30;;;;;;;;;;;16.30;48.50;;;;;;10209131;28;94497;-63
2022/12/14 10:10:39;;;;;;;;;;;16.30;48.30;;;;;;10192359;28;94578;-64
2022/12/14 10:15:40;;;;;;;;;;;16.30;48.10;;;;;;10209775;28;93733;-63
2022/12/14 10:20:49;;;;;;;;;;;16.30;48.10;;;;;;10209862;28;94263;-63
2022/12/14 10:25:53;;;;;;;;;;;16.30;48.20;;;;;;10208425;28;93490;-63
2022/12/14 10:30:56;;;;;;;;;;;16.20;48.30;;;;;;10206525;28;95917;-63
2022/12/14 10:36:05;;;;;;;;;;;16.10;48.40;;;;;;10209718;28;94051;-63
2022/12/14 10:41:27;;;;;;;;;;;16.00;48.50;;;;;;10208817;28;93687;-63
2022/12/14 10:46:32;;;;;;;;;;;16.00;48.70;;;;;;10209645;28;93352;-63
2022/12/14 10:51:39;;;;;;;;;;;16.00;48.80;;;;;;10208738;28;93417;-63
2022/12/14 10:56:42;;;;;;;;;;;16.00;48.80;;;;;;10208413;28;94669;-62
2022/12/14 11:02:02;;;;;;;;;;;15.90;48.80;;;;;;10215090;28;93374;-63
2022/12/14 11:07:06;;;;;;;;;;;15.80;48.90;;;;;;10215776;28;93805;-63
2022/12/14 11:12:26;;;;;;;;;;;15.80;49.10;;;;;;10228737;28;93361;-63
2022/12/14 11:17:28;;;;;;;;;;;15.80;49.10;;;;;;10214136;28;93493;-63
2022/12/14 11:22:41;;;;;;;;;;;15.80;49.10;;;;;;10211316;28;96170;-63
2022/12/14 11:27:43;;;;;;;;;;;15.80;49.30;;;;;;10214059;28;94456;-63
2022/12/14 11:32:50;;;;;;;;;;;15.80;49.50;;;;;;10214582;28;94592;-63
2022/12/14 11:37:57;;;;;;;;;;;15.80;49.70;;;;;;10213702;28;93598;-63
2022/12/14 11:43:01;;;;;;;;;;;15.80;49.60;;;;;;10214218;28;93591;-63
2022/12/14 11:48:12;;;;;;;;;;;15.70;49.60;;;;;;10213101;28;94494;-63
2022/12/14 11:53:17;;;;;;;;;;;15.70;49.80;;;;;;10213239;28;93479;-63
2022/12/14 11:58:21;;;;;;;;;;;15.70;50.00;;;;;;10227885;28;92504;-63
2022/12/14 12:03:34;;;;;;;;;;;15.70;50.00;;;;;;10213179;28;93484;-63
2022/12/14 12:08:37;;;;;;;;;;;15.70;50.00;;;;;;10212982;28;93550;-63
2022/12/14 12:13:40;;;;;;;;;;;15.70;50.10;;;;;;10225511;28;95890;-63
2022/12/14 12:18:47;;;;;;;;;;;15.70;50.30;;;;;;10213547;28;93400;-63
2022/12/14 12:23:56;;;;;;;;;;;15.70;50.30;;;;;;10212393;28;93949;-63
2022/12/14 12:29:01;;;;;;;;;;;15.70;50.20;;;;;;10212931;28;93113;-63
2022/12/14 12:34:12;;;;;;;;;;;15.70;50.30;;;;;;10211816;28;93625;-63
2022/12/14 12:39:15;;;;;;;;;;;15.70;50.30;;;;;;10212884;28;94552;-63
2022/12/14 12:44:42;;;;;;;;;;;15.70;50.40;;;;;;10211967;28;94599;-63
2022/12/14 12:49:50;;;;;;;;;;;15.70;50.50;;;;;;10197798;28;92776;-63
2022/12/14 12:55:09;;;;;;;;;;;15.70;50.40;;;;;;10211648;28;94716;-63
2022/12/14 13:00:24;;;;;;;;;;;15.70;50.50;;;;;;10211995;28;93531;-62
2022/12/14 13:05:28;;;;;;;;;;;15.60;50.60;;;;;;10208930;28;95931;-62
2022/12/14 13:10:48;;;;;;;;;;;15.70;50.70;;;;;;10210409;28;94388;-63
2022/12/14 13:16:19;;;;;;;;;;;15.70;50.50;;;;;;10210433;28;94203;-63
2022/12/14 13:21:31;;;;;;;;;;;15.80;50.40;;;;;;10210147;28;94257;-63
2022/12/14 13:26:51;;;;;;;;;;;15.80;50.30;;;;;;10210693;28;93445;-63
2022/12/14 13:32:17;;;;;;;;;;;15.80;50.20;;;;;;10208982;28;94508;-62
2022/12/14 13:37:38;;;;;;;;;;;15.80;50.30;;;;;;10210631;28;92692;-63
2022/12/14 13:43:00;;;;;;;;;;;15.80;50.40;;;;;;10210973;28;92763;-62
2022/12/14 13:48:05;;;;;;;;;;;15.80;50.30;;;;;;10213260;28;94616;-63
2022/12/14 13:53:16;;;;;;;;;;;15.80;50.20;;;;;;10209837;28;93648;-62
2022/12/14 13:58:24;;;;;;;;;;;15.70;50.20;;;;;;10207389;28;94971;-63
2022/12/14 14:03:35;;;;;;;;;;;15.70;50.30;;;;;;10208680;28;94386;-63
2022/12/14 14:08:37;;;;;;;;;;;15.70;50.30;;;;;;10210277;28;94321;-62
2022/12/14 14:13:42;;;;;;;;;;;15.80;50.30;;;;;;10208300;28;93732;-62
2022/12/14 14:19:13;;;;;;;;;;;15.80;50.10;;;;;;10208922;28;93501;-62
2022/12/14 14:24:15;;;;;;;;;;;15.80;50.00;;;;;;10203690;28;93889;-62
2022/12/14 14:29:33;;;;;;;;;;;15.80;50.00;;;;;;10207813;28;94062;-63
2022/12/14 14:34:40;;;;;;;;;;;15.80;50.00;;;;;;10214244;28;92523;-63
2022/12/14 14:39:42;;;;;;;;;;;15.80;50.00;;;;;;10214820;28;93306;-62
2022/12/14 14:45:04;;;;;;;;;;;15.80;50.00;;;;;;10216238;28;95960;-62
2022/12/14 14:50:12;;;;;;;;;;;15.70;49.90;;;;;;10213649;28;96966;-63
2022/12/14 14:55:35;;;;;;;;;;;15.70;50.00;;;;;;10214117;28;93221;-62
2022/12/14 15:01:12;;;;;;;;;;;15.70;50.10;;;;;;10215298;28;92912;-63
2022/12/14 15:06:15;;;;;;;;;;;15.80;50.00;;;;;;10214638;28;94527;-62
2022/12/14 15:11:19;;;;;;;;;;;15.80;49.90;;;;;;10215094;28;92768;-63
2022/12/14 15:16:28;;;;;;;;;;;15.90;49.80;;;;;;10229424;28;94071;-62
2022/12/14 15:21:30;;;;;;;;;;;15.80;49.70;;;;;;10230117;28;94325;-62
2022/12/14 15:26:32;;;;;;;;;;;15.80;49.80;;;;;;10215189;28;92660;-63
2022/12/14 15:31:38;;;;;;;;;;;15.80;49.90;;;;;;10214386;28;94470;-63
2022/12/14 15:36:41;;;;;;;;;;;15.80;49.80;;;;;;10214619;28;94507;-63
2022/12/14 15:41:42;;;;;;;;;;;15.80;49.80;;;;;;10211700;28;96804;-63
2022/12/14 15:46:52;;;;;;;;;;;15.80;49.80;;;;;;10213861;28;92505;-63
2022/12/14 15:51:54;;;;;;;;;;;15.80;49.80;;;;;;10228584;28;93420;-63
2022/12/14 15:56:57;;;;;;;;;;;15.70;49.80;;;;;;10228532;28;94005;-63
2022/12/14 16:02:14;;;;;;;;;;;15.80;49.70;;;;;;10213047;28;93658;-63
2022/12/14 16:07:19;;;;;;;;;;;15.80;49.60;;;;;;10213091;28;93459;-63
2022/12/14 16:12:26;;;;;;;;;;;15.90;49.60;;;;;;10211429;28;93212;-61
2022/12/14 16:17:29;;;;;;;;;;;15.80;50.20;;;;;;10212501;28;92803;-60
2022/12/14 16:22:31;;;;;;;;;;;15.90;50.80;;;;;;10212093;28;93305;-61
2022/12/14 16:27:41;;;;;;;;;;;15.90;51.70;;;;;;10212241;28;94606;-61
2022/12/14 16:32:43;;;;;;;;;;;15.90;51.70;;;;;;10209690;28;96059;-62
2022/12/14 16:37:52;;;;;;;;;;;16.10;54.60;;;;;;10212715;28;94193;-61
2022/12/14 16:42:54;;;;;;;;;;;16.40;51.30;;;;;;10212034;28;93370;-61
2022/12/14 16:48:01;;;;;;;;;;;16.70;51.10;;;;;;10211617;28;94377;-61
2022/12/14 16:53:19;;;;;;;;;;;16.90;51.30;;;;;;10207257;28;93341;-61
2022/12/14 16:58:21;;;;;;;;;;;17.10;51.80;;;;;;10208951;28;93291;-61
2022/12/14 17:03:24;;;;;;;;;;;17.40;52.90;;;;;;10208501;28;93397;-61
2022/12/14 17:08:26;;;;;;;;;;;17.70;54.60;;;;;;10207196;28;92417;-60
2022/12/14 17:13:28;;;;;;;;;;;17.80;51.90;;;;;;10209501;28;94459;-60
2022/12/14 17:18:33;;;;;;;;;;;17.80;51.90;;;;;;10208311;28;92834;-60
2022/12/14 17:23:37;;;;;;;;;;;17.80;52.30;;;;;;10206680;28;96536;-60
2022/12/14 17:28:39;;;;;;;;;;;17.70;52.20;;;;;;10209783;28;94763;-62
2022/12/14 17:33:40;;;;;;;;;;;17.70;52.20;;;;;;10202038;28;93488;-60
2022/12/14 17:38:42;;;;;;;;;;;17.70;52.80;;;;;;10207602;28;93436;-60
2022/12/14 17:43:44;;;;;;;;;;;17.70;52.80;;;;;;10208346;28;94768;-61
2022/12/14 17:48:55;;;;;;;;;;;17.80;53.00;;;;;;10206972;28;93596;-61
2022/12/14 17:54:02;;;;;;;;;;;17.70;52.20;;;;;;10208370;28;93361;-61
2022/12/14 17:59:03;;;;;;;;;;;17.60;52.10;;;;;;10210575;28;92673;-59
2022/12/14 18:04:05;;;;;;;;;;;17.60;53.50;;;;;;10208058;28;93423;-61
2022/12/14 18:09:07;;;;;;;;;;;17.70;53.50;;;;;;10207907;28;93443;-61
2022/12/14 18:14:11;;;;;;;;;;;17.80;52.80;;;;;;10205678;28;95788;-62
2022/12/14 18:19:13;;;;;;;;;;;18.00;52.60;;;;;;10207425;28;93389;-62
2022/12/14 18:24:15;;;;;;;;;;;18.00;52.20;;;;;;10207658;28;93487;-62
2022/12/14 18:29:23;;;;;;;;;;;18.00;52.00;;;;;;10206991;28;93503;-62
2022/12/14 18:34:25;;;;;;;;;;;18.00;52.00;;;;;;10220852;28;93551;-63
2022/12/14 18:39:26;;;;;;;;;;;18.10;51.80;;;;;;10206741;28;94842;-63
2022/12/14 18:44:28;;;;;;;;;;;18.20;51.40;;;;;;10207576;28;93486;-63
2022/12/14 18:49:30;;;;;;;;;;;18.10;51.20;;;;;;10207373;28;92657;-62
2022/12/14 18:54:32;;;;;;;;;;;18.00;51.00;;;;;;10207375;28;94521;-63
2022/12/14 18:59:34;;;;;;;;;;;17.90;51.00;;;;;;10206837;28;93965;-63
2022/12/14 19:04:48;;;;;;;;;;;17.90;51.00;;;;;;10204091;28;95944;-63
2022/12/14 19:09:50;;;;;;;;;;;18.00;50.80;;;;;;10206863;28;94465;-63
2022/12/14 19:14:52;;;;;;;;;;;18.10;50.50;;;;;;10206991;28;93478;-62
2022/12/14 19:19:53;;;;;;;;;;;18.00;50.20;;;;;;10210310;28;93336;-63
2022/12/14 19:24:55;;;;;;;;;;;18.00;50.20;;;;;;10196282;28;93119;-63
2022/12/14 19:29:57;;;;;;;;;;;17.80;50.10;;;;;;10213598;28;93473;-63
2022/12/14 19:34:59;;;;;;;;;;;17.80;51.20;;;;;;10213349;28;93609;-63
2022/12/14 19:40:01;;;;;;;;;;;17.90;50.10;;;;;;10214123;28;93349;-62
2022/12/14 19:45:03;;;;;;;;;;;18.00;50.00;;;;;;10204184;28;93536;-62
2022/12/14 19:50:06;;;;;;;;;;;18.10;49.60;;;;;;10211700;28;94401;-62
2022/12/14 19:55:07;;;;;;;;;;;18.10;49.40;;;;;;10209407;28;96644;-62
2022/12/14 20:00:09;;;;;;;;;;;18.20;49.40;;;;;;10206705;28;93514;-62
2022/12/14 20:05:11;;;;;;;;;;;18.10;49.30;;;;;;10210460;28;93384;-62
2022/12/14 20:10:13;;;;;;;;;;;18.10;49.50;;;;;;10209567;28;94414;-64
2022/12/14 20:15:14;;;;;;;;;;;18.10;49.50;;;;;;10212672;28;94462;-62
2022/12/14 20:20:19;;;;;;;;;;;18.20;49.40;;;;;;10212074;28;93614;-62
2022/12/14 20:25:24;;;;;;;;;;;18.30;49.10;;;;;;10212292;28;93822;-62
2022/12/14 20:30:26;;;;;;;;;;;18.30;49.00;;;;;;10210426;28;92647;-63
2022/12/14 20:35:28;;;;;;;;;;;18.20;49.00;;;;;;10211588;28;94708;-62
2022/12/14 20:40:31;;;;;;;;;;;18.00;49.20;;;;;;10226126;28;94328;-62
2022/12/14 20:45:40;;;;;;;;;;;17.90;49.40;;;;;;10208889;28;96903;-61
2022/12/14 20:50:42;;;;;;;;;;;17.70;49.50;;;;;;10210234;28;93456;-62
2022/12/14 20:55:43;;;;;;;;;;;17.60;49.80;;;;;;10211021;28;93468;-62
2022/12/14 21:00:45;;;;;;;;;;;17.40;50.00;;;;;;10225446;28;93710;-62
2022/12/14 21:05:47;;;;;;;;;;;17.30;50.20;;;;;;10209950;28;94487;-62
2022/12/14 21:10:49;;;;;;;;;;;17.10;50.40;;;;;;10210624;28;93496;-62
2022/12/14 21:15:51;;;;;;;;;;;17.00;50.60;;;;;;10210808;28;93436;-61
2022/12/14 21:20:52;;;;;;;;;;;16.80;50.80;;;;;;10210242;28;92675;-62
2022/12/14 21:25:54;;;;;;;;;;;16.70;50.90;;;;;;10210031;28;92585;-62
2022/12/14 21:31:06;;;;;;;;;;;16.60;51.00;;;;;;10209698;28;93489;-62
2022/12/14 21:36:08;;;;;;;;;;;16.50;51.20;;;;;;10206828;28;95727;-62
2022/12/14 21:46:44;;;;;;;;;;;16.30;51.20;;;;;;10197769;28;94251;-62
2022/12/14 21:51:48;;;;;;;;;;;16.20;51.40;;;;;;10207610;28;114005;-62
2022/12/14 22:02:12;;;;;;;;;;;16.00;51.60;;;;;;10208005;28;93442;-62
2022/12/14 22:07:15;;;;;;;;;;;16.00;51.70;;;;;;10207915;28;93821;-62
2022/12/14 22:12:17;;;;;;;;;;;15.90;51.60;;;;;;10209462;28;93293;-62
2022/12/14 22:17:19;;;;;;;;;;;15.90;51.50;;;;;;10208430;28;94607;-62
2022/12/14 22:22:20;;;;;;;;;;;15.80;51.50;;;;;;10208917;28;94029;-62
2022/12/14 22:27:22;;;;;;;;;;;15.70;51.40;;;;;;10205981;28;95845;-62
2022/12/14 22:32:25;;;;;;;;;;;15.70;51.60;;;;;;10207813;28;92556;-62
2022/12/14 22:37:26;;;;;;;;;;;15.70;51.70;;;;;;10208632;28;94467;-62
2022/12/14 22:42:28;;;;;;;;;;;15.70;51.60;;;;;;10207579;28;93339;-60
2022/12/14 22:47:30;;;;;;;;;;;15.80;51.40;;;;;;10207276;28;93481;-61
2022/12/14 22:52:31;;;;;;;;;;;15.90;51.20;;;;;;10222786;28;94806;-62
2022/12/14 22:57:40;;;;;;;;;;;15.90;50.90;;;;;;10214940;28;93891;-62
2022/12/14 23:02:42;;;;;;;;;;;16.00;50.80;;;;;;10215648;28;93904;-63
2022/12/14 23:07:49;;;;;;;;;;;15.90;50.70;;;;;;10213748;28;94421;-62
